Time;durP1;ratioP1;P1;durP2;ratioP2;P2;SDS_P1;SDS_P2;PMS_P1;PMS_P2;Temp;Humidity;BMP_temperature;BMP_pressure;BME280_temperature;BME280_humidity;BME280_pressure;Samples;Min_cycle;Max_cycle;Signal;HPM_P1;HPM_P2
2021/08/28 00:01:36;;;;;;;;;2.00;2.00;;;;;;;;5022825;28;113300;-72
2021/08/28 00:04:01;;;;;;;;;2.00;2.00;;;;;;;;5022197;28;112289;-74
2021/08/28 00:06:26;;;;;;;;;2.50;2.00;;;;;;;;5023152;28;112947;-75
2021/08/28 00:08:52;;;;;;;;;2.00;2.00;;;;;;;;5023332;28;111964;-75
2021/08/28 00:11:17;;;;;;;;;3.00;2.00;;;;;;;;5022002;28;112898;-75
2021/08/28 00:13:45;;;;;;;;;3.00;2.00;;;;;;;;5021779;27;111789;-75
2021/08/28 00:16:11;;;;;;;;;2.00;2.00;;;;;;;;5023544;28;111777;-73
2021/08/28 00:18:36;;;;;;;;;1.50;1.00;;;;;;;;5025895;28;112402;-74
2021/08/28 00:21:02;;;;;;;;;2.50;1.50;;;;;;;;5023108;28;111832;-74
2021/08/28 00:23:27;;;;;;;;;2.75;2.75;;;;;;;;5021780;28;112532;-74
2021/08/28 00:25:52;;;;;;;;;1.00;1.00;;;;;;;;5022816;28;112127;-74
2021/08/28 00:28:18;;;;;;;;;2.25;1.75;;;;;;;;5022495;28;112014;-77
2021/08/28 00:30:43;;;;;;;;;3.50;3.25;;;;;;;;5021303;28;112554;-76
2021/08/28 00:33:10;;;;;;;;;1.50;1.00;;;;;;;;5022479;28;111871;-76
2021/08/28 00:35:35;;;;;;;;;2.00;2.00;;;;;;;;5022475;28;112018;-76
2021/08/28 00:38:00;;;;;;;;;1.50;1.50;;;;;;;;5020943;28;114188;-77
2021/08/28 00:40:25;;;;;;;;;2.50;1.50;;;;;;;;5026673;28;112311;-77
2021/08/28 00:42:51;;;;;;;;;3.00;1.00;;;;;;;;5022042;28;112392;-76
2021/08/28 00:45:21;;;;;;;;;2.75;2.75;;;;;;;;5004057;28;111932;-76
2021/08/28 00:48:05;;;;;;;;;1.00;1.00;;;;;;;;5022564;28;111769;-76
2021/08/28 00:50:31;;;;;;;;;2.00;2.00;;;;;;;;5021146;28;112522;-75
2021/08/28 00:52:57;;;;;;;;;1.25;1.25;;;;;;;;5022124;28;111938;-76
2021/08/28 00:55:24;;;;;;;;;1.50;1.50;;;;;;;;5022429;28;112234;-74
2021/08/28 00:57:49;;;;;;;;;2.00;2.00;;;;;;;;5021021;28;112444;-75
2021/08/28 01:00:15;;;;;;;;;1.00;1.00;;;;;;;;5021553;28;111946;-75
2021/08/28 01:02:42;;;;;;;;;1.00;1.00;;;;;;;;5025415;28;112028;-77
2021/08/28 01:05:19;;;;;;;;;2.00;1.00;;;;;;;;5021881;28;112078;-75
2021/08/28 01:07:50;;;;;;;;;2.00;2.00;;;;;;;;5022027;28;112126;-76
2021/08/28 01:10:18;;;;;;;;;1.00;1.00;;;;;;;;5021266;28;112592;-74
2021/08/28 01:12:44;;;;;;;;;1.33;1.00;;;;;;;;5021722;28;112067;-75
2021/08/28 01:15:12;;;;;;;;;1.33;1.33;;;;;;;;5004063;28;114207;-75
2021/08/28 01:17:39;;;;;;;;;2.00;2.00;;;;;;;;5021298;28;112559;-76
2021/08/28 01:20:13;;;;;;;;;2.00;2.00;;;;;;;;5021107;28;111885;-75
2021/08/28 01:22:39;;;;;;;;;1.25;1.25;;;;;;;;5021565;28;111796;-75
2021/08/28 01:25:05;;;;;;;;;2.00;2.00;;;;;;;;5024609;28;112491;-74
2021/08/28 01:27:46;;;;;;;;;1.00;1.00;;;;;;;;5022297;28;111739;-76
2021/08/28 01:30:11;;;;;;;;;3.25;1.25;;;;;;;;5020514;28;114306;-75
2021/08/28 01:32:37;;;;;;;;;2.00;1.00;;;;;;;;5021568;28;112012;-75
2021/08/28 01:35:03;;;;;;;;;1.00;1.00;;;;;;;;5021538;28;111793;-75
2021/08/28 01:37:28;;;;;;;;;1.75;1.00;;;;;;;;5020307;28;112889;-75
2021/08/28 01:39:55;;;;;;;;;2.00;2.00;;;;;;;;5021336;28;111928;-75
2021/08/28 01:42:21;;;;;;;;;1.00;1.00;;;;;;;;5022241;28;111855;-75
2021/08/28 01:44:48;;;;;;;;;2.75;1.50;;;;;;;;5020759;28;112679;-76
2021/08/28 01:47:14;;;;;;;;;1.00;1.00;;;;;;;;5025159;28;111726;-77
2021/08/28 01:49:40;;;;;;;;;1.00;1.00;;;;;;;;5019580;28;113714;-76
2021/08/28 01:52:06;;;;;;;;;2.00;2.00;;;;;;;;5021715;28;112004;-76
2021/08/28 01:54:31;;;;;;;;;1.00;1.00;;;;;;;;5021128;28;112016;-76
2021/08/28 01:56:56;;;;;;;;;1.00;1.00;;;;;;;;5019580;28;114728;-76
2021/08/28 01:59:22;;;;;;;;;1.00;1.00;;;;;;;;5020909;28;111737;-76
2021/08/28 02:01:47;;;;;;;;;2.50;1.25;;;;;;;;5002107;28;112871;-75
2021/08/28 02:04:13;;;;;;;;;1.00;1.00;;;;;;;;5018869;28;113485;-75
2021/08/28 02:06:49;;;;;;;;;1.50;1.50;;;;;;;;5023729;28;111770;-76
2021/08/28 02:09:33;;;;;;;;;2.75;2.00;;;;;;;;5020041;28;112516;-75
2021/08/28 02:12:01;;;;;;;;;1.00;1.00;;;;;;;;5020114;28;112200;-75
2021/08/28 02:14:52;;;;;;;;;2.00;2.00;;;;;;;;5020432;28;111884;-74
2021/08/28 02:17:17;;;;;;;;;1.00;1.00;;;;;;;;5014832;28;112712;-79
2021/08/28 02:19:43;;;;;;;;;1.00;1.00;;;;;;;;5020060;28;112079;-74
2021/08/28 02:22:15;;;;;;;;;1.00;1.00;;;;;;;;5002967;28;113723;-75
2021/08/28 02:24:42;;;;;;;;;2.00;2.00;;;;;;;;5019463;28;112470;-73
2021/08/28 02:27:11;;;;;;;;;2.00;2.00;;;;;;;;5002604;28;111895;-72
2021/08/28 02:29:40;;;;;;;;;1.00;1.00;;;;;;;;5022632;28;111855;-73
2021/08/28 02:32:06;;;;;;;;;2.00;2.00;;;;;;;;5020252;28;112221;-73
2021/08/28 02:34:34;;;;;;;;;1.00;1.00;;;;;;;;5020180;28;112580;-73
2021/08/28 02:37:00;;;;;;;;;1.00;1.00;;;;;;;;5022211;27;112424;-73
2021/08/28 02:39:27;;;;;;;;;1.00;1.00;;;;;;;;5005460;28;112040;-73
2021/08/28 02:41:53;;;;;;;;;1.50;1.50;;;;;;;;5023694;28;111924;-74
2021/08/28 02:44:21;;;;;;;;;4.00;3.00;;;;;;;;5023010;28;112569;-74
2021/08/28 02:46:47;;;;;;;;;1.25;1.00;;;;;;;;5023758;28;111561;-74
2021/08/28 02:49:13;;;;;;;;;1.25;1.00;;;;;;;;5022778;28;112457;-74
2021/08/28 02:51:39;;;;;;;;;1.00;1.00;;;;;;;;5026736;28;112496;-73
2021/08/28 02:54:06;;;;;;;;;1.00;1.00;;;;;;;;5023102;28;112273;-73
2021/08/28 02:56:32;;;;;;;;;2.00;2.00;;;;;;;;5022479;28;112963;-74
2021/08/28 02:58:58;;;;;;;;;0.75;0.75;;;;;;;;5022839;28;112634;-74
2021/08/28 03:01:25;;;;;;;;;1.50;1.50;;;;;;;;5023921;28;112674;-74
2021/08/28 03:03:51;;;;;;;;;1.75;1.75;;;;;;;;5022186;28;112594;-74
2021/08/28 03:06:17;;;;;;;;;1.25;1.00;;;;;;;;5023069;28;111813;-73
2021/08/28 03:08:43;;;;;;;;;3.00;1.00;;;;;;;;5022959;28;113020;-73
2021/08/28 03:11:09;;;;;;;;;1.00;1.00;;;;;;;;5022466;28;114341;-74
2021/08/28 03:13:35;;;;;;;;;1.00;1.00;;;;;;;;5027051;28;112174;-73
2021/08/28 03:16:00;;;;;;;;;2.00;2.00;;;;;;;;5003856;28;114332;-74
2021/08/28 03:18:28;;;;;;;;;1.75;1.75;;;;;;;;5022559;28;111751;-73
2021/08/28 03:20:55;;;;;;;;;1.00;1.00;;;;;;;;5023271;28;112012;-73
2021/08/28 03:23:21;;;;;;;;;1.75;1.00;;;;;;;;5003690;28;113851;-73
2021/08/28 03:25:47;;;;;;;;;3.00;2.00;;;;;;;;5022594;28;111594;-74
2021/08/28 03:28:14;;;;;;;;;2.00;0.00;;;;;;;;5023572;28;112099;-73
2021/08/28 03:30:41;;;;;;;;;2.00;2.00;;;;;;;;5021770;28;113680;-73
2021/08/28 03:33:06;;;;;;;;;3.00;1.25;;;;;;;;5022721;28;111751;-73
2021/08/28 03:35:32;;;;;;;;;2.00;2.00;;;;;;;;5025530;28;112228;-72
2021/08/28 03:37:57;;;;;;;;;4.00;2.75;;;;;;;;5022464;28;111896;-73
2021/08/28 03:40:22;;;;;;;;;1.00;1.00;;;;;;;;5023395;28;111964;-73
2021/08/28 03:42:48;;;;;;;;;2.00;1.50;;;;;;;;5021541;28;112942;-72
2021/08/28 03:45:13;;;;;;;;;3.00;1.50;;;;;;;;5023379;28;111877;-73
2021/08/28 03:47:43;;;;;;;;;3.00;2.00;;;;;;;;5022812;27;111932;-72
2021/08/28 03:50:08;;;;;;;;;2.00;1.00;;;;;;;;5021321;28;112924;-73
2021/08/28 03:52:34;;;;;;;;;2.00;2.00;;;;;;;;5022928;28;112114;-73
2021/08/28 03:54:59;;;;;;;;;2.00;1.00;;;;;;;;5022822;28;111823;-73
2021/08/28 03:57:24;;;;;;;;;2.00;2.00;;;;;;;;5025199;28;113684;-73
2021/08/28 03:59:50;;;;;;;;;1.25;1.25;;;;;;;;5022494;28;113385;-73
2021/08/28 04:02:15;;;;;;;;;3.00;2.00;;;;;;;;5021152;28;112450;-73
2021/08/28 04:04:40;;;;;;;;;1.75;1.75;;;;;;;;5022120;28;112457;-74
2021/08/28 04:07:05;;;;;;;;;3.00;1.25;;;;;;;;5022102;28;112438;-74
2021/08/28 04:09:31;;;;;;;;;1.50;1.50;;;;;;;;5020810;28;112337;-74
2021/08/28 04:11:56;;;;;;;;;2.75;2.00;;;;;;;;5003785;28;111869;-74
2021/08/28 04:14:21;;;;;;;;;1.50;1.25;;;;;;;;5021611;28;113217;-73
2021/08/28 04:16:47;;;;;;;;;2.00;2.00;;;;;;;;5025628;28;112312;-74
2021/08/28 04:19:12;;;;;;;;;3.50;2.50;;;;;;;;5022241;28;111697;-74
2021/08/28 04:21:37;;;;;;;;;3.75;2.25;;;;;;;;5021717;28;112421;-73
2021/08/28 04:24:03;;;;;;;;;1.75;1.75;;;;;;;;5022078;28;111901;-73
2021/08/28 04:26:28;;;;;;;;;2.50;2.00;;;;;;;;5022252;28;112796;-73
2021/08/28 04:28:55;;;;;;;;;3.00;3.00;;;;;;;;5021206;28;112443;-74
2021/08/28 04:31:20;;;;;;;;;2.50;2.50;;;;;;;;5013297;28;112173;-73
2021/08/28 04:33:46;;;;;;;;;2.00;2.00;;;;;;;;5021876;28;112164;-74
2021/08/28 04:36:11;;;;;;;;;3.00;3.00;;;;;;;;5002812;28;116099;-73
2021/08/28 04:38:36;;;;;;;;;2.00;2.00;;;;;;;;5026071;28;111821;-73
2021/08/28 04:41:02;;;;;;;;;3.00;2.75;;;;;;;;5021143;28;112325;-73
2021/08/28 04:43:27;;;;;;;;;2.00;2.00;;;;;;;;5022286;28;111671;-73
2021/08/28 04:45:52;;;;;;;;;1.75;1.75;;;;;;;;5022105;28;112462;-73
2021/08/28 04:48:17;;;;;;;;;1.50;1.00;;;;;;;;5021235;28;112501;-73
2021/08/28 04:50:43;;;;;;;;;1.50;1.00;;;;;;;;5021538;28;111874;-72
2021/08/28 04:53:08;;;;;;;;;2.75;2.75;;;;;;;;5021566;28;112262;-72
2021/08/28 04:55:33;;;;;;;;;2.00;1.75;;;;;;;;5020473;28;112260;-73
2021/08/28 04:57:59;;;;;;;;;2.50;2.00;;;;;;;;5002063;28;111984;-74
2021/08/28 05:00:24;;;;;;;;;2.00;2.00;;;;;;;;5023565;28;112945;-74
2021/08/28 05:02:49;;;;;;;;;3.00;2.00;;;;;;;;5021126;28;111639;-73
2021/08/28 05:05:15;;;;;;;;;3.00;2.00;;;;;;;;5021230;28;112250;-73
2021/08/28 05:07:40;;;;;;;;;1.25;1.00;;;;;;;;5001721;28;115513;-75
2021/08/28 05:10:05;;;;;;;;;2.00;1.00;;;;;;;;5020998;28;111939;-74
2021/08/28 05:12:31;;;;;;;;;1.00;1.00;;;;;;;;5003658;28;115348;-74
2021/08/28 05:14:56;;;;;;;;;1.50;1.00;;;;;;;;5020690;28;112458;-74
2021/08/28 05:17:21;;;;;;;;;2.50;1.00;;;;;;;;5003442;28;111980;-73
2021/08/28 05:19:47;;;;;;;;;2.00;1.50;;;;;;;;5020918;28;112197;-74
2021/08/28 05:22:12;;;;;;;;;1.00;1.00;;;;;;;;5005900;28;116227;-74
2021/08/28 05:24:37;;;;;;;;;1.00;1.00;;;;;;;;5021400;28;112500;-73
2021/08/28 05:27:03;;;;;;;;;4.00;2.00;;;;;;;;5020216;28;112283;-74
2021/08/28 05:29:28;;;;;;;;;1.00;1.00;;;;;;;;5021078;28;113455;-74
2021/08/28 05:31:56;;;;;;;;;1.00;1.00;;;;;;;;5021095;28;111824;-74
2021/08/28 05:34:21;;;;;;;;;2.00;2.00;;;;;;;;5020168;28;112580;-73
2021/08/28 05:36:47;;;;;;;;;3.00;2.25;;;;;;;;5021621;28;111739;-72
2021/08/28 05:39:12;;;;;;;;;2.75;2.75;;;;;;;;5021154;28;112519;-73
2021/08/28 05:41:37;;;;;;;;;1.00;1.00;;;;;;;;5019790;28;112310;-72
2021/08/28 05:44:03;;;;;;;;;1.00;1.00;;;;;;;;5024308;28;112058;-73
2021/08/28 05:46:29;;;;;;;;;2.00;2.00;;;;;;;;5001091;28;116537;-73
2021/08/28 05:48:54;;;;;;;;;2.00;2.00;;;;;;;;5019812;28;111877;-73
2021/08/28 05:51:20;;;;;;;;;2.25;1.75;;;;;;;;5020210;28;112212;-73
2021/08/28 05:53:45;;;;;;;;;2.00;2.00;;;;;;;;5020244;28;112868;-73
2021/08/28 05:56:11;;;;;;;;;3.50;2.00;;;;;;;;5020895;28;111686;-73
2021/08/28 05:58:36;;;;;;;;;5.25;4.25;;;;;;;;5020774;28;111899;-75
2021/08/28 06:01:02;;;;;;;;;4.25;4.25;;;;;;;;5019848;28;113494;-75
2021/08/28 06:03:27;;;;;;;;;5.00;5.00;;;;;;;;5020719;28;111609;-75
2021/08/28 06:05:52;;;;;;;;;5.50;4.00;;;;;;;;5023330;28;112071;-74
2021/08/28 06:08:17;;;;;;;;;3.00;3.00;;;;;;;;5020281;28;112139;-75
2021/08/28 06:10:43;;;;;;;;;5.00;3.50;;;;;;;;5020933;27;112897;-74
2021/08/28 06:13:08;;;;;;;;;2.25;2.25;;;;;;;;5023068;28;113219;-74
2021/08/28 06:15:33;;;;;;;;;3.00;3.00;;;;;;;;5023765;28;111932;-73
2021/08/28 06:17:59;;;;;;;;;3.00;3.00;;;;;;;;5023976;28;112342;-73
2021/08/28 06:20:25;;;;;;;;;2.50;2.25;;;;;;;;5022274;28;112406;-73
2021/08/28 06:22:50;;;;;;;;;3.75;3.75;;;;;;;;5023941;28;112189;-74
2021/08/28 06:25:15;;;;;;;;;3.00;3.00;;;;;;;;5027415;28;112505;-74
2021/08/28 06:27:41;;;;;;;;;4.25;4.25;;;;;;;;5024380;28;111839;-74
2021/08/28 06:30:06;;;;;;;;;3.75;3.00;;;;;;;;5024122;28;111711;-74
2021/08/28 06:32:31;;;;;;;;;4.75;4.00;;;;;;;;5023027;28;112573;-75
2021/08/28 06:34:57;;;;;;;;;3.00;3.00;;;;;;;;5023969;28;111820;-74
2021/08/28 06:37:22;;;;;;;;;4.00;4.00;;;;;;;;5005460;28;114254;-75
2021/08/28 06:39:47;;;;;;;;;3.25;3.25;;;;;;;;5022708;28;112999;-75
2021/08/28 06:42:12;;;;;;;;;5.00;3.00;;;;;;;;5023496;28;112415;-76
2021/08/28 06:44:39;;;;;;;;;3.50;3.00;;;;;;;;5023863;28;112251;-75
2021/08/28 06:47:05;;;;;;;;;1.75;1.00;;;;;;;;5018968;28;113270;-75
2021/08/28 06:49:30;;;;;;;;;3.50;3.00;;;;;;;;5005311;28;113803;-73
2021/08/28 06:51:55;;;;;;;;;4.00;4.00;;;;;;;;5022889;28;112752;-74
2021/08/28 06:54:21;;;;;;;;;3.00;3.00;;;;;;;;5023621;28;111854;-72
2021/08/28 06:56:46;;;;;;;;;4.00;3.00;;;;;;;;5023134;28;112085;-72
2021/08/28 06:59:12;;;;;;;;;3.25;3.25;;;;;;;;5022677;28;112532;-78
2021/08/28 07:01:37;;;;;;;;;5.00;5.00;;;;;;;;5024143;28;112275;-77
2021/08/28 07:04:02;;;;;;;;;5.50;4.00;;;;;;;;5014925;28;112478;-66
2021/08/28 07:06:28;;;;;;;;;3.00;3.00;;;;;;;;5018197;28;112910;-67
2021/08/28 07:08:54;;;;;;;;;5.00;3.00;;;;;;;;5026374;28;111921;-67
2021/08/28 07:11:19;;;;;;;;;5.75;4.00;;;;;;;;5021852;28;112298;-68
2021/08/28 07:13:44;;;;;;;;;4.50;3.50;;;;;;;;4877953;28;111978;-68
2021/08/28 07:16:10;;;;;;;;;5.00;5.00;;;;;;;;5015308;28;111833;-67
2021/08/28 07:18:35;;;;;;;;;4.50;4.00;;;;;;;;5021053;28;112226;-67
2021/08/28 07:21:00;;;;;;;;;4.50;3.75;;;;;;;;5021939;28;111800;-67
2021/08/28 07:23:25;;;;;;;;;4.00;4.00;;;;;;;;5022463;28;112049;-67
2021/08/28 07:25:51;;;;;;;;;4.00;4.00;;;;;;;;5020815;27;112382;-67
2021/08/28 07:28:16;;;;;;;;;5.00;4.00;;;;;;;;5020270;28;112131;-68
2021/08/28 07:30:42;;;;;;;;;6.25;4.00;;;;;;;;5021528;28;112154;-67
2021/08/28 07:33:07;;;;;;;;;4.50;4.50;;;;;;;;5013736;28;112064;-67
2021/08/28 07:35:33;;;;;;;;;5.75;5.75;;;;;;;;4984396;28;112041;-66
2021/08/28 07:37:58;;;;;;;;;4.00;4.00;;;;;;;;4983669;28;116316;-67
2021/08/28 07:40:24;;;;;;;;;3.00;3.00;;;;;;;;5002645;28;111904;-67
2021/08/28 07:42:50;;;;;;;;;3.50;3.50;;;;;;;;5009835;28;112963;-67
2021/08/28 07:45:15;;;;;;;;;4.00;3.00;;;;;;;;5021255;28;112797;-67
2021/08/28 07:47:40;;;;;;;;;2.00;2.00;;;;;;;;5022388;28;111713;-67
2021/08/28 07:50:06;;;;;;;;;2.50;2.00;;;;;;;;5021997;28;112266;-67
2021/08/28 07:52:31;;;;;;;;;3.00;2.00;;;;;;;;5024942;28;112334;-67
2021/08/28 07:54:58;;;;;;;;;2.00;2.00;;;;;;;;5022016;28;111868;-68
2021/08/28 07:57:23;;;;;;;;;2.25;2.00;;;;;;;;5021938;28;112990;-70
2021/08/28 07:59:48;;;;;;;;;1.75;1.75;;;;;;;;5022977;28;112164;-70
2021/08/28 08:02:14;;;;;;;;;3.50;2.25;;;;;;;;5022889;28;111746;-69
2021/08/28 08:04:42;;;;;;;;;3.00;2.75;;;;;;;;5002664;28;112714;-68
2021/08/28 08:07:07;;;;;;;;;4.00;2.00;;;;;;;;5002020;28;112042;-70
2021/08/28 08:09:32;;;;;;;;;3.00;2.50;;;;;;;;5002098;28;112333;-69
2021/08/28 08:11:58;;;;;;;;;5.75;3.00;;;;;;;;5001298;28;112333;-71
2021/08/28 08:14:23;;;;;;;;;4.00;4.00;;;;;;;;5005601;28;112391;-72
2021/08/28 08:16:48;;;;;;;;;2.00;2.00;;;;;;;;5000762;28;113019;-70
2021/08/28 08:19:14;;;;;;;;;7.00;4.00;;;;;;;;5077662;22;113830;-73
2021/08/28 08:26:49;;;;;;;;;2.50;2.50;;;;;;;;5098121;22;114380;-76
2021/08/28 08:29:14;;;;;;;;;4.25;4.25;;;;;;;;4979009;28;112265;-76
2021/08/28 08:31:40;;;;;;;;;5.50;3.75;;;;;;;;4972839;28;112755;-80
2021/08/28 08:34:05;;;;;;;;;3.50;3.50;;;;;;;;4964106;28;112522;-79
2021/08/28 08:36:30;;;;;;;;;3.00;2.75;;;;;;;;4957399;28;112720;-80
2021/08/28 08:38:56;;;;;;;;;2.00;2.00;;;;;;;;4959240;28;112205;-79
2021/08/28 08:41:23;;;;;;;;;2.75;2.00;;;;;;;;4961330;28;112520;-76
2021/08/28 08:43:49;;;;;;;;;2.00;2.00;;;;;;;;4958604;28;116863;-84
2021/08/28 08:46:15;;;;;;;;;1.50;1.50;;;;;;;;4961933;28;112542;-83
2021/08/28 08:48:41;;;;;;;;;1.00;1.00;;;;;;;;4962191;28;112764;-80
2021/08/28 08:51:07;;;;;;;;;2.75;2.75;;;;;;;;4960959;28;112496;-76
2021/08/28 08:53:33;;;;;;;;;2.50;2.50;;;;;;;;4961044;28;111888;-76
2021/08/28 08:55:59;;;;;;;;;2.75;2.75;;;;;;;;4963617;28;112365;-74
2021/08/28 08:58:25;;;;;;;;;4.75;3.25;;;;;;;;4960336;28;111809;-73
2021/08/28 09:00:50;;;;;;;;;2.00;2.00;;;;;;;;4960267;28;115014;-73
2021/08/28 09:03:15;;;;;;;;;2.00;2.00;;;;;;;;4960330;28;113126;-72
2021/08/28 09:05:41;;;;;;;;;3.00;3.00;;;;;;;;4943589;28;112219;-69
2021/08/28 09:08:07;;;;;;;;;3.00;2.25;;;;;;;;4961380;28;111876;-71
2021/08/28 09:10:32;;;;;;;;;1.50;0.50;;;;;;;;4960561;28;112863;-71
2021/08/28 09:13:17;;;;;;;;;1.25;1.25;;;;;;;;4960993;28;111812;-71
2021/08/28 09:15:44;;;;;;;;;5.00;2.50;;;;;;;;4942882;28;115112;-71
2021/08/28 09:18:09;;;;;;;;;1.00;1.00;;;;;;;;4963753;28;113231;-71
2021/08/28 09:20:35;;;;;;;;;1.75;1.00;;;;;;;;4959121;28;112205;-71
2021/08/28 09:23:08;;;;;;;;;0.00;0.00;;;;;;;;4961190;28;113885;-72
2021/08/28 09:25:33;;;;;;;;;0.75;0.75;;;;;;;;4959326;28;111826;-71
2021/08/28 09:27:59;;;;;;;;;2.00;2.00;;;;;;;;4959341;28;112445;-71
2021/08/28 09:30:51;;;;;;;;;0.00;0.00;;;;;;;;4958567;28;112410;-75
2021/08/28 09:33:21;;;;;;;;;2.00;2.00;;;;;;;;4953981;28;112740;-68
2021/08/28 09:35:47;;;;;;;;;0.00;0.00;;;;;;;;4958960;28;112467;-68
2021/08/28 09:38:14;;;;;;;;;0.50;0.50;;;;;;;;4956025;28;112517;-70
2021/08/28 09:40:43;;;;;;;;;0.00;0.00;;;;;;;;4960783;28;111953;-73
2021/08/28 09:43:13;;;;;;;;;0.00;0.00;;;;;;;;4958337;28;112990;-72
2021/08/28 09:45:38;;;;;;;;;1.75;0.00;;;;;;;;4956733;28;112469;-70
2021/08/28 09:48:05;;;;;;;;;0.00;0.00;;;;;;;;4958933;28;112506;-71
2021/08/28 09:50:32;;;;;;;;;2.25;1.75;;;;;;;;4958260;28;113214;-72
2021/08/28 09:53:05;;;;;;;;;1.00;1.00;;;;;;;;4961419;28;112385;-74
2021/08/28 09:55:32;;;;;;;;;0.75;0.75;;;;;;;;4958994;28;112969;-69
2021/08/28 09:57:57;;;;;;;;;1.00;0.00;;;;;;;;4958427;28;112509;-71
2021/08/28 10:00:23;;;;;;;;;2.00;0.00;;;;;;;;4960768;28;111834;-68
2021/08/28 10:02:58;;;;;;;;;0.00;0.00;;;;;;;;4962872;28;111978;-68
2021/08/28 10:05:24;;;;;;;;;0.75;0.75;;;;;;;;4941279;28;111747;-67
2021/08/28 10:07:50;;;;;;;;;1.00;1.00;;;;;;;;4941563;28;112361;-71
2021/08/28 10:10:17;;;;;;;;;1.00;1.00;;;;;;;;4940321;28;112380;-71
2021/08/28 10:12:45;;;;;;;;;1.00;1.00;;;;;;;;4940337;28;112325;-71
2021/08/28 10:15:10;;;;;;;;;1.00;1.00;;;;;;;;4941603;28;112451;-72
2021/08/28 10:17:36;;;;;;;;;2.00;1.00;;;;;;;;4940235;28;112318;-74
2021/08/28 10:20:02;;;;;;;;;0.25;0.00;;;;;;;;4941449;28;111662;-72
2021/08/28 10:22:29;;;;;;;;;1.00;0.00;;;;;;;;4941192;28;112642;-72
2021/08/28 10:24:57;;;;;;;;;1.67;0.00;;;;;;;;4942943;28;112937;-73
2021/08/28 10:27:26;;;;;;;;;1.00;1.00;;;;;;;;4960053;28;113482;-73
2021/08/28 10:29:51;;;;;;;;;0.67;0.67;;;;;;;;4959874;28;112990;-73
2021/08/28 10:32:17;;;;;;;;;0.00;0.00;;;;;;;;4943097;28;112938;-72
2021/08/28 10:34:42;;;;;;;;;0.00;0.00;;;;;;;;4944748;28;112026;-69
2021/08/28 10:37:08;;;;;;;;;1.00;0.00;;;;;;;;4939288;28;112642;-68
2021/08/28 10:39:33;;;;;;;;;0.00;0.00;;;;;;;;4941132;28;112108;-71
2021/08/28 10:41:59;;;;;;;;;0.00;0.00;;;;;;;;4940855;28;112249;-68
2021/08/28 10:44:24;;;;;;;;;1.00;0.00;;;;;;;;4943648;28;112448;-70
2021/08/28 10:46:49;;;;;;;;;0.33;0.00;;;;;;;;4940703;28;112053;-70
2021/08/28 10:49:15;;;;;;;;;0.67;0.00;;;;;;;;4939379;28;112283;-71
2021/08/28 10:51:41;;;;;;;;;0.00;0.00;;;;;;;;4941112;28;113783;-70
2021/08/28 10:54:08;;;;;;;;;0.00;0.00;;;;;;;;4941343;28;111989;-68
2021/08/28 10:56:46;;;;;;;;;0.00;0.00;;;;;;;;4940186;28;112536;-72
2021/08/28 10:59:23;;;;;;;;;0.00;0.00;;;;;;;;4944121;28;111905;-73
2021/08/28 11:02:06;;;;;;;;;0.00;0.00;;;;;;;;4953478;28;111882;-68
2021/08/28 11:04:39;;;;;;;;;1.00;1.00;;;;;;;;4962613;28;113058;-68
2021/08/28 11:07:24;;;;;;;;;0.00;0.00;;;;;;;;4949070;28;112050;-69
2021/08/28 11:10:07;;;;;;;;;0.00;0.00;;;;;;;;4961977;28;113827;-71
2021/08/28 11:12:51;;;;;;;;;0.00;0.00;;;;;;;;4963416;28;111828;-66
2021/08/28 11:15:25;;;;;;;;;0.00;0.00;;;;;;;;4945130;28;115429;-68
2021/08/28 11:17:53;;;;;;;;;2.00;0.00;;;;;;;;4961789;28;113104;-69
2021/08/28 11:20:23;;;;;;;;;3.67;0.33;;;;;;;;4963848;28;111630;-70
2021/08/28 11:22:48;;;;;;;;;0.00;0.00;;;;;;;;4963502;28;112393;-69
2021/08/28 11:25:14;;;;;;;;;0.00;0.00;;;;;;;;4961368;28;112657;-70
2021/08/28 11:27:45;;;;;;;;;1.33;0.00;;;;;;;;4962516;28;111814;-70
2021/08/28 11:30:11;;;;;;;;;0.00;0.00;;;;;;;;4965506;28;112244;-70
2021/08/28 11:32:37;;;;;;;;;0.00;0.00;;;;;;;;4962240;28;111813;-69
2021/08/28 11:35:03;;;;;;;;;0.00;0.00;;;;;;;;4963464;28;112794;-70
2021/08/28 11:37:29;;;;;;;;;0.33;0.33;;;;;;;;4944373;28;115603;-70
2021/08/28 11:40:03;;;;;;;;;0.00;0.00;;;;;;;;4963265;28;111795;-71
2021/08/28 11:42:29;;;;;;;;;1.00;1.00;;;;;;;;4945085;28;115792;-68
2021/08/28 11:44:55;;;;;;;;;1.00;0.00;;;;;;;;4962046;28;112631;-69
2021/08/28 11:47:21;;;;;;;;;1.00;1.00;;;;;;;;4963020;28;111867;-69
2021/08/28 11:49:50;;;;;;;;;1.00;1.00;;;;;;;;4962163;28;111709;-71
2021/08/28 11:52:16;;;;;;;;;0.00;0.00;;;;;;;;4964467;28;113199;-70
2021/08/28 11:54:43;;;;;;;;;1.00;1.00;;;;;;;;4962236;28;111948;-71
2021/08/28 11:57:09;;;;;;;;;1.67;1.67;;;;;;;;4943846;28;115651;-71
2021/08/28 11:59:35;;;;;;;;;1.33;1.00;;;;;;;;4962624;28;112391;-73
2021/08/28 12:02:00;;;;;;;;;1.33;1.33;;;;;;;;4962466;28;111987;-73
2021/08/28 12:04:26;;;;;;;;;1.00;1.00;;;;;;;;4961183;28;112760;-72
2021/08/28 12:06:53;;;;;;;;;1.00;1.00;;;;;;;;4962408;28;111728;-76
2021/08/28 12:09:21;;;;;;;;;1.00;1.00;;;;;;;;4961490;28;115258;-74
2021/08/28 12:11:47;;;;;;;;;0.33;0.33;;;;;;;;4960878;28;112377;-71
2021/08/28 12:14:12;;;;;;;;;1.00;1.00;;;;;;;;4947894;28;112060;-72
2021/08/28 12:16:39;;;;;;;;;1.00;1.00;;;;;;;;4961344;28;112633;-69
2021/08/28 12:19:13;;;;;;;;;0.33;0.33;;;;;;;;4944154;28;111975;-67
2021/08/28 12:21:43;;;;;;;;;0.00;0.00;;;;;;;;4962464;28;112190;-69
2021/08/28 12:24:22;;;;;;;;;3.00;2.00;;;;;;;;4961319;28;113257;-68
2021/08/28 12:26:53;;;;;;;;;1.67;1.00;;;;;;;;4964094;28;111994;-70
2021/08/28 12:29:38;;;;;;;;;1.00;1.00;;;;;;;;4962604;28;112077;-71
2021/08/28 12:32:09;;;;;;;;;0.33;0.33;;;;;;;;4961499;28;112898;-71
2021/08/28 12:34:35;;;;;;;;;0.00;0.00;;;;;;;;4966394;28;111766;-71
2021/08/28 12:37:02;;;;;;;;;1.50;1.50;;;;;;;;4942931;28;114008;-73
2021/08/28 12:39:28;;;;;;;;;2.00;0.67;;;;;;;;4961815;28;112264;-72
2021/08/28 12:41:53;;;;;;;;;2.00;1.00;;;;;;;;4962139;28;111846;-71
2021/08/28 12:44:19;;;;;;;;;1.00;1.00;;;;;;;;4943536;28;116205;-71
2021/08/28 12:46:48;;;;;;;;;0.33;0.33;;;;;;;;4962116;28;112081;-71
2021/08/28 12:49:15;;;;;;;;;1.00;1.00;;;;;;;;4961724;28;111991;-72
2021/08/28 12:51:57;;;;;;;;;0.67;0.67;;;;;;;;4961011;28;113641;-72
2021/08/28 12:54:27;;;;;;;;;1.00;1.00;;;;;;;;4962040;28;112754;-71
2021/08/28 12:56:54;;;;;;;;;1.00;1.00;;;;;;;;4964959;28;112821;-72
2021/08/28 12:59:20;;;;;;;;;1.00;1.00;;;;;;;;4962276;28;111806;-75
2021/08/28 13:01:55;;;;;;;;;1.00;1.00;;;;;;;;4961644;28;112515;-71
2021/08/28 13:04:27;;;;;;;;;0.00;0.00;;;;;;;;4960647;28;112725;-71
2021/08/28 13:07:11;;;;;;;;;0.00;0.00;;;;;;;;4961233;28;112602;-71
2021/08/28 13:09:52;;;;;;;;;1.00;1.00;;;;;;;;4961238;28;112500;-75
2021/08/28 13:12:18;;;;;;;;;1.00;0.00;;;;;;;;4958384;28;113669;-75
2021/08/28 13:14:47;;;;;;;;;1.33;0.67;;;;;;;;4958807;28;112132;-75
2021/08/28 13:17:13;;;;;;;;;0.67;0.67;;;;;;;;4961806;28;112465;-75
2021/08/28 13:19:38;;;;;;;;;1.00;1.00;;;;;;;;4963447;28;113460;-73
2021/08/28 13:22:04;;;;;;;;;1.00;1.00;;;;;;;;4961247;28;112287;-75
2021/08/28 13:24:29;;;;;;;;;2.67;1.33;;;;;;;;4968364;28;112841;-73
2021/08/28 13:27:01;;;;;;;;;3.00;1.00;;;;;;;;4981005;28;112119;-75
2021/08/28 13:29:28;;;;;;;;;0.33;0.33;;;;;;;;4963167;28;111964;-73
2021/08/28 13:32:04;;;;;;;;;1.67;1.00;;;;;;;;4979710;28;113761;-84
2021/08/28 13:34:36;;;;;;;;;2.00;2.00;;;;;;;;4966531;28;111840;-71
2021/08/28 13:37:04;;;;;;;;;2.00;2.00;;;;;;;;4943769;28;113590;-74
2021/08/28 13:39:29;;;;;;;;;2.33;2.00;;;;;;;;4965169;28;112890;-71
2021/08/28 13:41:55;;;;;;;;;2.00;2.00;;;;;;;;4981288;28;111824;-73
2021/08/28 13:44:20;;;;;;;;;1.00;1.00;;;;;;;;4979802;28;112316;-74
2021/08/28 13:46:45;;;;;;;;;1.00;1.00;;;;;;;;4980684;28;111871;-74
2021/08/28 13:49:10;;;;;;;;;1.00;1.00;;;;;;;;4980583;28;111970;-73
2021/08/28 13:51:36;;;;;;;;;1.00;1.00;;;;;;;;4979175;28;112285;-73
2021/08/28 13:54:01;;;;;;;;;0.67;0.67;;;;;;;;4980281;28;111731;-72
2021/08/28 13:56:28;;;;;;;;;1.00;1.00;;;;;;;;4979782;28;112273;-73
2021/08/28 13:58:53;;;;;;;;;0.00;0.00;;;;;;;;4980028;28;112425;-72
2021/08/28 14:01:18;;;;;;;;;1.00;1.00;;;;;;;;4980360;28;111880;-73
2021/08/28 14:03:44;;;;;;;;;0.00;0.00;;;;;;;;4975623;28;111987;-81
2021/08/28 14:06:09;;;;;;;;;1.33;0.00;;;;;;;;4961593;28;112139;-76
2021/08/28 14:08:34;;;;;;;;;1.67;1.67;;;;;;;;4961147;28;111795;-77
2021/08/28 14:10:59;;;;;;;;;0.75;0.75;;;;;;;;4960120;28;112482;-73
2021/08/28 14:13:25;;;;;;;;;1.00;1.00;;;;;;;;4961704;28;112110;-71
2021/08/28 14:15:50;;;;;;;;;1.75;1.00;;;;;;;;4961142;28;112237;-71
2021/08/28 14:18:15;;;;;;;;;1.00;1.00;;;;;;;;4959889;28;112664;-72
2021/08/28 14:20:41;;;;;;;;;1.00;1.00;;;;;;;;4960388;28;112578;-71
2021/08/28 14:23:06;;;;;;;;;0.33;0.33;;;;;;;;4960777;28;112613;-72
2021/08/28 14:25:31;;;;;;;;;0.00;0.00;;;;;;;;4945112;28;114396;-71
2021/08/28 14:27:57;;;;;;;;;1.00;1.00;;;;;;;;4960605;28;111840;-72
2021/08/28 14:30:23;;;;;;;;;1.00;1.00;;;;;;;;4959450;28;112311;-72
2021/08/28 14:32:48;;;;;;;;;0.33;0.33;;;;;;;;4962351;28;112596;-72
2021/08/28 14:35:13;;;;;;;;;0.00;0.00;;;;;;;;4963614;28;112031;-72